sensor_id;sensor_type;location;lat;lon;timestamp;temperature;humidity
37289;DHT22;23174;49.462;11.000;2023-02-11T00:02:00;3.30;99.90
37289;DHT22;23174;49.462;11.000;2023-02-11T00:04:02;2.50;99.90
37289;DHT22;23174;49.462;11.000;2023-02-11T00:06:05;1.90;99.90
37289;DHT22;23174;49.462;11.000;2023-02-11T00:08:08;1.60;99.90
37289;DHT22;23174;49.462;11.000;2023-02-11T00:10:09;1.50;99.90
37289;DHT22;23174;49.462;11.000;2023-02-11T00:12:09;1.60;99.90
37289;DHT22;23174;49.462;11.000;2023-02-11T00:14:10;1.60;99.90
37289;DHT22;23174;49.462;11.000;2023-02-11T00:16:16;1.50;99.90
37289;DHT22;23174;49.462;11.000;2023-02-11T00:18:17;1.60;99.90
37289;DHT22;23174;49.462;11.000;2023-02-11T00:20:18;1.60;99.90
37289;DHT22;23174;49.462;11.000;2023-02-11T00:22:18;1.60;99.90
37289;DHT22;23174;49.462;11.000;2023-02-11T00:24:19;1.60;99.90
37289;DHT22;23174;49.462;11.000;2023-02-11T00:26:25;1.90;99.90
37289;DHT22;23174;49.462;11.000;2023-02-11T00:28:26;2.80;99.90
37289;DHT22;23174;49.462;11.000;2023-02-11T00:30:26;3.40;99.90
37289;DHT22;23174;49.462;11.000;2023-02-11T00:32:27;3.60;99.90
37289;DHT22;23174;49.462;11.000;2023-02-11T00:34:27;3.80;99.90
37289;DHT22;23174;49.462;11.000;2023-02-11T00:36:28;3.80;99.90
37289;DHT22;23174;49.462;11.000;2023-02-11T00:38:29;3.80;99.90
37289;DHT22;23174;49.462;11.000;2023-02-11T00:40:30;3.70;99.90
37289;DHT22;23174;49.462;11.000;2023-02-11T00:42:30;3.60;99.90
37289;DHT22;23174;49.462;11.000;2023-02-11T00:44:31;3.70;99.90
37289;DHT22;23174;49.462;11.000;2023-02-11T00:46:32;3.70;99.90
37289;DHT22;23174;49.462;11.000;2023-02-11T00:48:33;3.60;99.90
37289;DHT22;23174;49.462;11.000;2023-02-11T00:50:34;3.60;99.90
37289;DHT22;23174;49.462;11.000;2023-02-11T00:52:34;3.60;99.90
37289;DHT22;23174;49.462;11.000;2023-02-11T00:54:35;3.60;99.90
37289;DHT22;23174;49.462;11.000;2023-02-11T00:56:35;3.70;99.90
37289;DHT22;23174;49.462;11.000;2023-02-11T00:58:36;3.70;99.90
37289;DHT22;23174;49.462;11.000;2023-02-11T01:00:37;3.80;99.90
37289;DHT22;23174;49.462;11.000;2023-02-11T01:02:37;3.90;99.90
37289;DHT22;23174;49.462;11.000;2023-02-11T01:04:38;4.00;99.90
37289;DHT22;23174;49.462;11.000;2023-02-11T01:06:38;3.90;99.90
37289;DHT22;23174;49.462;11.000;2023-02-11T01:08:39;3.80;99.90
37289;DHT22;23174;49.462;11.000;2023-02-11T01:10:39;3.80;99.90
37289;DHT22;23174;49.462;11.000;2023-02-11T01:12:40;3.80;99.90
37289;DHT22;23174;49.462;11.000;2023-02-11T01:14:41;3.90;99.90
37289;DHT22;23174;49.462;11.000;2023-02-11T01:16:41;4.00;99.90
37289;DHT22;23174;49.462;11.000;2023-02-11T01:18:42;4.00;99.90
37289;DHT22;23174;49.462;11.000;2023-02-11T01:20:43;4.10;99.90
37289;DHT22;23174;49.462;11.000;2023-02-11T01:22:44;4.20;99.90
37289;DHT22;23174;49.462;11.000;2023-02-11T01:24:44;4.30;99.90
37289;DHT22;23174;49.462;11.000;2023-02-11T01:26:45;4.30;99.90
37289;DHT22;23174;49.462;11.000;2023-02-11T01:28:45;4.30;99.90
37289;DHT22;23174;49.462;11.000;2023-02-11T01:30:47;4.20;99.90
37289;DHT22;23174;49.462;11.000;2023-02-11T01:32:47;4.20;99.90
37289;DHT22;23174;49.462;11.000;2023-02-11T01:34:48;4.10;99.90
37289;DHT22;23174;49.462;11.000;2023-02-11T01:36:48;4.10;99.90
37289;DHT22;23174;49.462;11.000;2023-02-11T01:38:49;4.20;99.90
37289;DHT22;23174;49.462;11.000;2023-02-11T01:40:55;4.20;99.90
37289;DHT22;23174;49.462;11.000;2023-02-11T01:42:56;4.10;99.90
37289;DHT22;23174;49.462;11.000;2023-02-11T01:44:59;4.20;99.90
37289;DHT22;23174;49.462;11.000;2023-02-11T01:47:00;4.20;99.90
37289;DHT22;23174;49.462;11.000;2023-02-11T01:49:10;4.00;99.90
37289;DHT22;23174;49.462;11.000;2023-02-11T01:51:16;4.00;99.90
37289;DHT22;23174;49.462;11.000;2023-02-11T01:53:18;3.90;99.90
37289;DHT22;23174;49.462;11.000;2023-02-11T01:55:37;3.90;99.90
37289;DHT22;23174;49.462;11.000;2023-02-11T01:57:59;3.90;99.90
37289;DHT22;23174;49.462;11.000;2023-02-11T02:02:38;4.00;99.90
37289;DHT22;23174;49.462;11.000;2023-02-11T02:04:57;3.90;99.90
37289;DHT22;23174;49.462;11.000;2023-02-11T02:07:07;3.90;99.90
37289;DHT22;23174;49.462;11.000;2023-02-11T02:09:15;4.00;99.90
37289;DHT22;23174;49.462;11.000;2023-02-11T02:11:17;4.10;99.90
37289;DHT22;23174;49.462;11.000;2023-02-11T02:13:18;4.10;99.90
37289;DHT22;23174;49.462;11.000;2023-02-11T02:15:31;4.20;99.90
37289;DHT22;23174;49.462;11.000;2023-02-11T02:17:39;4.20;99.90
37289;DHT22;23174;49.462;11.000;2023-02-11T02:20:00;4.20;99.90
37289;DHT22;23174;49.462;11.000;2023-02-11T02:34:06;4.50;99.90
37289;DHT22;23174;49.462;11.000;2023-02-11T02:40:54;4.70;99.90
37289;DHT22;23174;49.462;11.000;2023-02-11T02:42:56;4.80;99.90
37289;DHT22;23174;49.462;11.000;2023-02-11T02:44:58;4.70;99.90
37289;DHT22;23174;49.462;11.000;2023-02-11T02:46:58;4.80;99.90
37289;DHT22;23174;49.462;11.000;2023-02-11T02:49:00;4.70;99.90
37289;DHT22;23174;49.462;11.000;2023-02-11T02:53:31;4.50;99.90
37289;DHT22;23174;49.462;11.000;2023-02-11T02:55:50;4.50;99.90
37289;DHT22;23174;49.462;11.000;2023-02-11T03:05:11;4.60;99.90
37289;DHT22;23174;49.462;11.000;2023-02-11T03:07:50;4.60;99.90
37289;DHT22;23174;49.462;11.000;2023-02-11T03:10:35;4.50;99.90
37289;DHT22;23174;49.462;11.000;2023-02-11T03:12:16;4.60;99.90
37289;DHT22;23174;49.462;11.000;2023-02-11T03:14:18;4.60;99.90
37289;DHT22;23174;49.462;11.000;2023-02-11T03:16:23;4.70;99.90
37289;DHT22;23174;49.462;11.000;2023-02-11T03:18:26;4.70;99.90
37289;DHT22;23174;49.462;11.000;2023-02-11T03:20:30;4.70;99.90
37289;DHT22;23174;49.462;11.000;2023-02-11T03:23:12;4.70;99.90
37289;DHT22;23174;49.462;11.000;2023-02-11T03:25:13;4.60;99.90
37289;DHT22;23174;49.462;11.000;2023-02-11T03:32:12;4.60;99.90
37289;DHT22;23174;49.462;11.000;2023-02-11T03:36:51;4.60;99.90
37289;DHT22;23174;49.462;11.000;2023-02-11T03:38:56;4.70;99.90
37289;DHT22;23174;49.462;11.000;2023-02-11T03:40:59;4.80;99.90
37289;DHT22;23174;49.462;11.000;2023-02-11T03:43:06;4.80;99.90
37289;DHT22;23174;49.462;11.000;2023-02-11T03:45:11;4.80;99.90
37289;DHT22;23174;49.462;11.000;2023-02-11T03:47:14;4.90;99.90
37289;DHT22;23174;49.462;11.000;2023-02-11T03:49:20;5.00;99.90
37289;DHT22;23174;49.462;11.000;2023-02-11T03:51:22;5.10;99.90
37289;DHT22;23174;49.462;11.000;2023-02-11T03:53:23;5.10;99.90
37289;DHT22;23174;49.462;11.000;2023-02-11T03:55:24;5.10;99.90
37289;DHT22;23174;49.462;11.000;2023-02-11T03:57:26;5.10;99.90
37289;DHT22;23174;49.462;11.000;2023-02-11T03:59:27;5.20;99.90
37289;DHT22;23174;49.462;11.000;2023-02-11T04:01:27;5.10;99.90
37289;DHT22;23174;49.462;11.000;2023-02-11T04:03:28;5.00;99.90
37289;DHT22;23174;49.462;11.000;2023-02-11T04:05:29;5.00;99.90
37289;DHT22;23174;49.462;11.000;2023-02-11T04:07:29;5.00;99.90
37289;DHT22;23174;49.462;11.000;2023-02-11T04:09:30;5.00;99.90
37289;DHT22;23174;49.462;11.000;2023-02-11T04:11:30;5.00;99.90
37289;DHT22;23174;49.462;11.000;2023-02-11T04:13:31;5.00;99.90
37289;DHT22;23174;49.462;11.000;2023-02-11T04:15:32;5.00;99.90
37289;DHT22;23174;49.462;11.000;2023-02-11T04:17:32;5.00;99.90
37289;DHT22;23174;49.462;11.000;2023-02-11T04:19:33;5.00;99.90
37289;DHT22;23174;49.462;11.000;2023-02-11T04:21:34;5.10;99.90
37289;DHT22;23174;49.462;11.000;2023-02-11T04:23:34;5.10;99.90
37289;DHT22;23174;49.462;11.000;2023-02-11T04:25:35;5.10;99.90
37289;DHT22;23174;49.462;11.000;2023-02-11T04:27:36;5.10;99.90
37289;DHT22;23174;49.462;11.000;2023-02-11T04:29:36;5.10;99.90
37289;DHT22;23174;49.462;11.000;2023-02-11T04:31:37;5.20;99.90
37289;DHT22;23174;49.462;11.000;2023-02-11T04:33:38;5.50;99.90
37289;DHT22;23174;49.462;11.000;2023-02-11T04:35:38;5.40;99.90
37289;DHT22;23174;49.462;11.000;2023-02-11T04:37:39;5.50;99.90
37289;DHT22;23174;49.462;11.000;2023-02-11T04:39:40;5.40;99.90
37289;DHT22;23174;49.462;11.000;2023-02-11T04:41:40;5.20;99.90
37289;DHT22;23174;49.462;11.000;2023-02-11T04:43:41;5.20;99.90
37289;DHT22;23174;49.462;11.000;2023-02-11T04:45:41;5.10;99.90
37289;DHT22;23174;49.462;11.000;2023-02-11T04:47:42;5.10;99.90
37289;DHT22;23174;49.462;11.000;2023-02-11T04:49:42;5.10;99.90
37289;DHT22;23174;49.462;11.000;2023-02-11T04:51:43;5.20;99.90
37289;DHT22;23174;49.462;11.000;2023-02-11T04:53:46;5.20;99.90
37289;DHT22;23174;49.462;11.000;2023-02-11T04:55:48;5.30;99.90
37289;DHT22;23174;49.462;11.000;2023-02-11T04:57:49;5.20;99.90
37289;DHT22;23174;49.462;11.000;2023-02-11T04:59:50;5.20;99.90
37289;DHT22;23174;49.462;11.000;2023-02-11T05:01:50;5.20;99.90
37289;DHT22;23174;49.462;11.000;2023-02-11T05:03:51;5.20;99.90
37289;DHT22;23174;49.462;11.000;2023-02-11T05:05:51;5.20;99.90
37289;DHT22;23174;49.462;11.000;2023-02-11T05:07:52;5.20;99.90
37289;DHT22;23174;49.462;11.000;2023-02-11T05:09:53;5.20;99.90
37289;DHT22;23174;49.462;11.000;2023-02-11T05:11:53;5.20;99.90
37289;DHT22;23174;49.462;11.000;2023-02-11T05:13:54;5.30;99.90
37289;DHT22;23174;49.462;11.000;2023-02-11T05:15:54;5.20;99.90
37289;DHT22;23174;49.462;11.000;2023-02-11T05:17:55;5.20;99.90
37289;DHT22;23174;49.462;11.000;2023-02-11T05:19:55;5.30;99.90
37289;DHT22;23174;49.462;11.000;2023-02-11T05:21:56;5.30;99.90
37289;DHT22;23174;49.462;11.000;2023-02-11T05:23:57;5.30;99.90
37289;DHT22;23174;49.462;11.000;2023-02-11T05:25:57;5.40;99.90
37289;DHT22;23174;49.462;11.000;2023-02-11T05:27:58;5.50;99.90
37289;DHT22;23174;49.462;11.000;2023-02-11T05:29:59;5.60;99.90
37289;DHT22;23174;49.462;11.000;2023-02-11T05:32:05;5.60;99.90
37289;DHT22;23174;49.462;11.000;2023-02-11T05:34:08;5.70;99.90
37289;DHT22;23174;49.462;11.000;2023-02-11T05:36:10;5.70;99.90
37289;DHT22;23174;49.462;11.000;2023-02-11T05:38:11;5.60;99.90
37289;DHT22;23174;49.462;11.000;2023-02-11T05:40:12;5.60;99.90
37289;DHT22;23174;49.462;11.000;2023-02-11T05:42:13;5.60;99.90
37289;DHT22;23174;49.462;11.000;2023-02-11T05:44:13;5.70;99.90
37289;DHT22;23174;49.462;11.000;2023-02-11T05:46:14;5.80;99.90
37289;DHT22;23174;49.462;11.000;2023-02-11T05:48:15;6.00;99.90
37289;DHT22;23174;49.462;11.000;2023-02-11T05:50:15;5.90;99.90
37289;DHT22;23174;49.462;11.000;2023-02-11T05:52:16;6.00;99.90
37289;DHT22;23174;49.462;11.000;2023-02-11T05:54:16;5.90;99.90
37289;DHT22;23174;49.462;11.000;2023-02-11T05:56:17;5.80;99.90
37289;DHT22;23174;49.462;11.000;2023-02-11T05:58:18;5.80;99.90
37289;DHT22;23174;49.462;11.000;2023-02-11T06:00:18;5.70;99.90
37289;DHT22;23174;49.462;11.000;2023-02-11T06:02:19;5.70;99.90
37289;DHT22;23174;49.462;11.000;2023-02-11T06:04:19;5.70;99.90
37289;DHT22;23174;49.462;11.000;2023-02-11T06:06:20;5.70;99.90
37289;DHT22;23174;49.462;11.000;2023-02-11T06:08:21;5.70;99.90
37289;DHT22;23174;49.462;11.000;2023-02-11T06:10:21;5.70;99.90
37289;DHT22;23174;49.462;11.000;2023-02-11T06:12:22;5.70;99.90
37289;DHT22;23174;49.462;11.000;2023-02-11T06:14:23;5.80;99.90
37289;DHT22;23174;49.462;11.000;2023-02-11T06:16:23;6.00;99.90
37289;DHT22;23174;49.462;11.000;2023-02-11T06:18:24;6.00;99.90
37289;DHT22;23174;49.462;11.000;2023-02-11T06:20:24;6.10;99.90
37289;DHT22;23174;49.462;11.000;2023-02-11T06:22:25;6.10;99.90
37289;DHT22;23174;49.462;11.000;2023-02-11T06:24:26;6.00;99.90
37289;DHT22;23174;49.462;11.000;2023-02-11T06:26:27;5.90;99.90
37289;DHT22;23174;49.462;11.000;2023-02-11T06:28:27;5.90;99.90
37289;DHT22;23174;49.462;11.000;2023-02-11T06:30:30;5.80;99.90
37289;DHT22;23174;49.462;11.000;2023-02-11T06:32:31;5.80;99.90
37289;DHT22;23174;49.462;11.000;2023-02-11T06:34:31;5.80;99.90
37289;DHT22;23174;49.462;11.000;2023-02-11T06:36:32;5.80;99.90
37289;DHT22;23174;49.462;11.000;2023-02-11T06:38:33;5.80;99.90
37289;DHT22;23174;49.462;11.000;2023-02-11T06:40:33;5.90;99.90
37289;DHT22;23174;49.462;11.000;2023-02-11T06:42:34;5.90;99.90
37289;DHT22;23174;49.462;11.000;2023-02-11T06:44:35;5.90;99.90
37289;DHT22;23174;49.462;11.000;2023-02-11T06:46:35;5.90;99.90
37289;DHT22;23174;49.462;11.000;2023-02-11T06:48:36;5.90;99.90
37289;DHT22;23174;49.462;11.000;2023-02-11T06:50:37;5.90;99.90
37289;DHT22;23174;49.462;11.000;2023-02-11T06:52:38;5.90;99.90
37289;DHT22;23174;49.462;11.000;2023-02-11T06:54:38;6.00;99.90
37289;DHT22;23174;49.462;11.000;2023-02-11T06:56:40;5.90;99.90
37289;DHT22;23174;49.462;11.000;2023-02-11T06:58:41;6.00;99.90
37289;DHT22;23174;49.462;11.000;2023-02-11T07:00:41;5.90;99.90
37289;DHT22;23174;49.462;11.000;2023-02-11T07:02:42;5.90;99.90
37289;DHT22;23174;49.462;11.000;2023-02-11T07:04:42;5.90;99.90
37289;DHT22;23174;49.462;11.000;2023-02-11T07:06:43;5.90;99.90
37289;DHT22;23174;49.462;11.000;2023-02-11T07:08:44;6.00;99.90
37289;DHT22;23174;49.462;11.000;2023-02-11T07:10:45;5.90;99.90
37289;DHT22;23174;49.462;11.000;2023-02-11T07:12:45;6.00;99.90
37289;DHT22;23174;49.462;11.000;2023-02-11T07:14:46;6.00;99.90
37289;DHT22;23174;49.462;11.000;2023-02-11T07:16:46;6.00;99.90
37289;DHT22;23174;49.462;11.000;2023-02-11T07:18:48;6.00;99.90
37289;DHT22;23174;49.462;11.000;2023-02-11T07:20:48;6.00;99.90
37289;DHT22;23174;49.462;11.000;2023-02-11T07:22:49;6.00;99.90
37289;DHT22;23174;49.462;11.000;2023-02-11T07:24:49;6.00;99.90
37289;DHT22;23174;49.462;11.000;2023-02-11T07:26:50;6.10;99.90
37289;DHT22;23174;49.462;11.000;2023-02-11T07:28:52;6.20;99.90
37289;DHT22;23174;49.462;11.000;2023-02-11T07:30:52;6.20;99.90
37289;DHT22;23174;49.462;11.000;2023-02-11T07:32:53;6.30;99.90
37289;DHT22;23174;49.462;11.000;2023-02-11T07:34:53;6.30;99.90
37289;DHT22;23174;49.462;11.000;2023-02-11T07:36:54;6.40;99.90
37289;DHT22;23174;49.462;11.000;2023-02-11T07:38:55;6.40;99.90
37289;DHT22;23174;49.462;11.000;2023-02-11T07:40:59;6.50;99.90
37289;DHT22;23174;49.462;11.000;2023-02-11T07:43:00;6.50;99.90
37289;DHT22;23174;49.462;11.000;2023-02-11T07:45:02;6.50;99.90
37289;DHT22;23174;49.462;11.000;2023-02-11T07:47:02;6.60;99.90
37289;DHT22;23174;49.462;11.000;2023-02-11T07:49:03;6.60;99.90
37289;DHT22;23174;49.462;11.000;2023-02-11T07:51:22;6.70;99.90
37289;DHT22;23174;49.462;11.000;2023-02-11T07:53:23;6.70;99.90
37289;DHT22;23174;49.462;11.000;2023-02-11T07:55:23;6.70;99.90
37289;DHT22;23174;49.462;11.000;2023-02-11T07:57:24;6.80;99.90
37289;DHT22;23174;49.462;11.000;2023-02-11T07:59:24;6.90;99.90
37289;DHT22;23174;49.462;11.000;2023-02-11T08:01:26;6.90;99.90
37289;DHT22;23174;49.462;11.000;2023-02-11T08:03:27;7.00;99.90
37289;DHT22;23174;49.462;11.000;2023-02-11T08:05:28;7.00;99.90
37289;DHT22;23174;49.462;11.000;2023-02-11T08:07:29;7.00;99.90
37289;DHT22;23174;49.462;11.000;2023-02-11T08:09:30;7.00;99.90
37289;DHT22;23174;49.462;11.000;2023-02-11T08:11:31;7.00;99.90
37289;DHT22;23174;49.462;11.000;2023-02-11T08:13:31;7.10;99.90
37289;DHT22;23174;49.462;11.000;2023-02-11T08:15:32;7.10;99.90
37289;DHT22;23174;49.462;11.000;2023-02-11T08:17:34;7.10;99.90
37289;DHT22;23174;49.462;11.000;2023-02-11T08:19:35;7.20;99.90
37289;DHT22;23174;49.462;11.000;2023-02-11T08:21:36;7.20;99.90
37289;DHT22;23174;49.462;11.000;2023-02-11T08:23:40;7.20;99.90
37289;DHT22;23174;49.462;11.000;2023-02-11T08:25:41;7.20;99.90
37289;DHT22;23174;49.462;11.000;2023-02-11T08:27:41;7.20;99.90
37289;DHT22;23174;49.462;11.000;2023-02-11T08:29:42;7.20;99.90
37289;DHT22;23174;49.462;11.000;2023-02-11T08:31:45;7.30;99.90
37289;DHT22;23174;49.462;11.000;2023-02-11T08:33:46;7.40;99.90
37289;DHT22;23174;49.462;11.000;2023-02-11T08:35:46;7.40;99.90
37289;DHT22;23174;49.462;11.000;2023-02-11T08:37:47;7.40;99.90
37289;DHT22;23174;49.462;11.000;2023-02-11T08:39:50;7.40;99.90
37289;DHT22;23174;49.462;11.000;2023-02-11T08:41:53;7.40;99.90
37289;DHT22;23174;49.462;11.000;2023-02-11T08:43:55;7.40;99.90
37289;DHT22;23174;49.462;11.000;2023-02-11T08:45:56;7.40;99.90
37289;DHT22;23174;49.462;11.000;2023-02-11T08:47:56;7.40;99.90
37289;DHT22;23174;49.462;11.000;2023-02-11T08:49:57;7.40;99.90
37289;DHT22;23174;49.462;11.000;2023-02-11T08:52:01;7.50;99.90
37289;DHT22;23174;49.462;11.000;2023-02-11T08:54:03;7.50;99.90
37289;DHT22;23174;49.462;11.000;2023-02-11T08:56:05;7.50;99.90
37289;DHT22;23174;49.462;11.000;2023-02-11T08:58:06;7.40;99.90
37289;DHT22;23174;49.462;11.000;2023-02-11T09:00:07;7.30;99.90
37289;DHT22;23174;49.462;11.000;2023-02-11T09:02:11;7.30;99.90
37289;DHT22;23174;49.462;11.000;2023-02-11T09:04:12;7.20;99.90
37289;DHT22;23174;49.462;11.000;2023-02-11T09:06:13;7.40;99.90
37289;DHT22;23174;49.462;11.000;2023-02-11T09:08:15;7.40;99.90
37289;DHT22;23174;49.462;11.000;2023-02-11T09:10:15;7.50;99.90
37289;DHT22;23174;49.462;11.000;2023-02-11T09:12:16;7.50;99.90
37289;DHT22;23174;49.462;11.000;2023-02-11T09:14:20;7.60;99.90
37289;DHT22;23174;49.462;11.000;2023-02-11T09:16:24;7.70;99.90
37289;DHT22;23174;49.462;11.000;2023-02-11T09:18:25;7.70;99.90
37289;DHT22;23174;49.462;11.000;2023-02-11T09:20:26;7.70;99.90
37289;DHT22;23174;49.462;11.000;2023-02-11T09:22:27;7.90;99.90
37289;DHT22;23174;49.462;11.000;2023-02-11T09:24:28;7.90;99.90
37289;DHT22;23174;49.462;11.000;2023-02-11T09:26:30;7.90;99.90
37289;DHT22;23174;49.462;11.000;2023-02-11T09:28:31;8.00;99.90
37289;DHT22;23174;49.462;11.000;2023-02-11T09:30:32;8.00;99.90
37289;DHT22;23174;49.462;11.000;2023-02-11T09:32:33;8.00;99.90
37289;DHT22;23174;49.462;11.000;2023-02-11T09:34:34;8.10;99.90
37289;DHT22;23174;49.462;11.000;2023-02-11T09:36:37;8.10;99.90
37289;DHT22;23174;49.462;11.000;2023-02-11T09:38:38;8.10;99.90
37289;DHT22;23174;49.462;11.000;2023-02-11T09:40:43;8.10;99.90
37289;DHT22;23174;49.462;11.000;2023-02-11T09:42:52;8.20;99.90
37289;DHT22;23174;49.462;11.000;2023-02-11T09:44:53;8.20;99.90
37289;DHT22;23174;49.462;11.000;2023-02-11T09:46:59;8.30;99.90
37289;DHT22;23174;49.462;11.000;2023-02-11T09:49:01;8.30;99.90
37289;DHT22;23174;49.462;11.000;2023-02-11T09:51:03;8.50;99.90
37289;DHT22;23174;49.462;11.000;2023-02-11T09:57:35;8.80;99.90
37289;DHT22;23174;49.462;11.000;2023-02-11T09:59:36;8.70;99.90
37289;DHT22;23174;49.462;11.000;2023-02-11T10:05:54;8.70;99.90
37289;DHT22;23174;49.462;11.000;2023-02-11T10:08:13;8.80;99.90
37289;DHT22;23174;49.462;11.000;2023-02-11T10:20:07;9.20;99.90
37289;DHT22;23174;49.462;11.000;2023-02-11T10:22:19;9.20;99.90
37289;DHT22;23174;49.462;11.000;2023-02-11T10:24:21;9.20;99.90
37289;DHT22;23174;49.462;11.000;2023-02-11T10:26:22;9.30;99.90
37289;DHT22;23174;49.462;11.000;2023-02-11T10:28:29;9.20;99.90
37289;DHT22;23174;49.462;11.000;2023-02-11T10:30:33;9.10;99.90
37289;DHT22;23174;49.462;11.000;2023-02-11T10:33:02;9.20;99.90
37289;DHT22;23174;49.462;11.000;2023-02-11T10:35:13;9.20;99.90
37289;DHT22;23174;49.462;11.000;2023-02-11T10:37:14;9.30;99.90
37289;DHT22;23174;49.462;11.000;2023-02-11T10:39:25;9.30;99.90
37289;DHT22;23174;49.462;11.000;2023-02-11T10:41:31;9.40;99.90
37289;DHT22;23174;49.462;11.000;2023-02-11T10:43:33;9.40;99.90
37289;DHT22;23174;49.462;11.000;2023-02-11T10:47:43;9.40;99.90
37289;DHT22;23174;49.462;11.000;2023-02-11T10:49:45;9.40;99.90
37289;DHT22;23174;49.462;11.000;2023-02-11T10:51:46;9.30;99.90
37289;DHT22;23174;49.462;11.000;2023-02-11T10:54:10;9.40;99.90
37289;DHT22;23174;49.462;11.000;2023-02-11T10:56:26;9.40;99.90
37289;DHT22;23174;49.462;11.000;2023-02-11T10:58:30;9.40;99.90
37289;DHT22;23174;49.462;11.000;2023-02-11T11:00:41;9.50;99.90
37289;DHT22;23174;49.462;11.000;2023-02-11T11:02:42;9.50;99.90
37289;DHT22;23174;49.462;11.000;2023-02-11T11:04:44;9.40;99.90
37289;DHT22;23174;49.462;11.000;2023-02-11T11:06:45;9.50;99.90
37289;DHT22;23174;49.462;11.000;2023-02-11T11:08:48;9.50;99.90
37289;DHT22;23174;49.462;11.000;2023-02-11T11:11:08;9.50;99.90
37289;DHT22;23174;49.462;11.000;2023-02-11T11:13:29;9.40;99.90
37289;DHT22;23174;49.462;11.000;2023-02-11T11:15:31;9.50;99.90
37289;DHT22;23174;49.462;11.000;2023-02-11T11:17:32;9.60;99.90
37289;DHT22;23174;49.462;11.000;2023-02-11T11:19:32;9.60;99.90
37289;DHT22;23174;49.462;11.000;2023-02-11T11:21:44;9.60;99.90
37289;DHT22;23174;49.462;11.000;2023-02-11T11:23:57;9.70;99.90
37289;DHT22;23174;49.462;11.000;2023-02-11T11:26:14;9.70;99.90
37289;DHT22;23174;49.462;11.000;2023-02-11T11:28:24;9.60;99.90
37289;DHT22;23174;49.462;11.000;2023-02-11T11:30:41;9.60;99.90
37289;DHT22;23174;49.462;11.000;2023-02-11T11:32:42;9.70;99.90
37289;DHT22;23174;49.462;11.000;2023-02-11T11:34:51;9.70;99.90
37289;DHT22;23174;49.462;11.000;2023-02-11T11:36:54;9.60;99.90
37289;DHT22;23174;49.462;11.000;2023-02-11T11:38:58;9.60;99.90
37289;DHT22;23174;49.462;11.000;2023-02-11T11:41:19;9.60;99.90
37289;DHT22;23174;49.462;11.000;2023-02-11T11:43:20;9.60;99.90
37289;DHT22;23174;49.462;11.000;2023-02-11T11:45:25;9.60;99.90
37289;DHT22;23174;49.462;11.000;2023-02-11T11:47:36;9.50;99.90
37289;DHT22;23174;49.462;11.000;2023-02-11T11:49:50;9.50;99.90
37289;DHT22;23174;49.462;11.000;2023-02-11T11:54:17;9.50;99.90
37289;DHT22;23174;49.462;11.000;2023-02-11T11:56:22;9.50;99.90
37289;DHT22;23174;49.462;11.000;2023-02-11T11:58:23;9.50;99.90
37289;DHT22;23174;49.462;11.000;2023-02-11T12:05:28;9.60;99.90
37289;DHT22;23174;49.462;11.000;2023-02-11T12:15:14;9.50;99.90
37289;DHT22;23174;49.462;11.000;2023-02-11T12:20:18;9.60;99.90
37289;DHT22;23174;49.462;11.000;2023-02-11T12:24:55;9.60;99.90
37289;DHT22;23174;49.462;11.000;2023-02-11T12:27:27;9.60;99.90
37289;DHT22;23174;49.462;11.000;2023-02-11T12:34:17;9.60;99.90
37289;DHT22;23174;49.462;11.000;2023-02-11T12:44:02;9.70;99.90
37289;DHT22;23174;49.462;11.000;2023-02-11T12:51:16;9.80;99.90
37289;DHT22;23174;49.462;11.000;2023-02-11T12:55:27;9.70;99.90
37289;DHT22;23174;49.462;11.000;2023-02-11T12:57:31;9.80;99.90
37289;DHT22;23174;49.462;11.000;2023-02-11T12:59:42;9.70;99.90
37289;DHT22;23174;49.462;11.000;2023-02-11T13:01:44;9.80;99.90
37289;DHT22;23174;49.462;11.000;2023-02-11T13:05:53;9.70;99.90
37289;DHT22;23174;49.462;11.000;2023-02-11T13:08:03;9.70;99.90
37289;DHT22;23174;49.462;11.000;2023-02-11T13:10:53;9.80;99.90
37289;DHT22;23174;49.462;11.000;2023-02-11T13:12:30;9.80;99.90
37289;DHT22;23174;49.462;11.000;2023-02-11T13:14:51;9.80;99.90
37289;DHT22;23174;49.462;11.000;2023-02-11T13:16:54;9.90;99.90
37289;DHT22;23174;49.462;11.000;2023-02-11T13:25:45;9.80;99.90
37289;DHT22;23174;49.462;11.000;2023-02-11T13:28:14;9.70;99.90
37289;DHT22;23174;49.462;11.000;2023-02-11T13:30:33;9.70;99.90
37289;DHT22;23174;49.462;11.000;2023-02-11T13:34:55;9.80;99.90
37289;DHT22;23174;49.462;11.000;2023-02-11T13:36:56;9.80;99.90
37289;DHT22;23174;49.462;11.000;2023-02-11T13:39:17;9.80;99.90
37289;DHT22;23174;49.462;11.000;2023-02-11T13:43:26;9.70;99.90
37289;DHT22;23174;49.462;11.000;2023-02-11T13:47:35;9.70;99.90
37289;DHT22;23174;49.462;11.000;2023-02-11T13:49:38;9.70;99.90
37289;DHT22;23174;49.462;11.000;2023-02-11T13:51:42;9.70;99.90
37289;DHT22;23174;49.462;11.000;2023-02-11T13:53:53;9.60;99.90
37289;DHT22;23174;49.462;11.000;2023-02-11T13:56:07;9.60;99.90
37289;DHT22;23174;49.462;11.000;2023-02-11T14:02:35;9.60;99.90
37289;DHT22;23174;49.462;11.000;2023-02-11T14:09:47;9.60;99.90
37289;DHT22;23174;49.462;11.000;2023-02-11T14:11:52;9.60;99.90
37289;DHT22;23174;49.462;11.000;2023-02-11T14:14:13;9.60;99.90
37289;DHT22;23174;49.462;11.000;2023-02-11T14:16:18;9.60;99.90
37289;DHT22;23174;49.462;11.000;2023-02-11T14:18:39;9.60;99.90
37289;DHT22;23174;49.462;11.000;2023-02-11T14:21:11;9.50;99.90
37289;DHT22;23174;49.462;11.000;2023-02-11T14:23:24;9.50;99.90
37289;DHT22;23174;49.462;11.000;2023-02-11T14:25:26;9.60;99.90
37289;DHT22;23174;49.462;11.000;2023-02-11T14:32:01;9.60;99.90
37289;DHT22;23174;49.462;11.000;2023-02-11T14:34:20;9.60;99.90
37289;DHT22;23174;49.462;11.000;2023-02-11T14:41:22;9.70;99.90
37289;DHT22;23174;49.462;11.000;2023-02-11T14:43:24;9.80;99.90
37289;DHT22;23174;49.462;11.000;2023-02-11T14:45:26;9.80;99.90
37289;DHT22;23174;49.462;11.000;2023-02-11T14:47:39;9.70;99.90
37289;DHT22;23174;49.462;11.000;2023-02-11T14:49:40;9.70;99.90
37289;DHT22;23174;49.462;11.000;2023-02-11T14:51:42;9.70;99.90
37289;DHT22;23174;49.462;11.000;2023-02-11T14:53:46;9.60;99.90
37289;DHT22;23174;49.462;11.000;2023-02-11T14:55:53;9.60;99.90
37289;DHT22;23174;49.462;11.000;2023-02-11T14:58:18;9.60;99.90
37289;DHT22;23174;49.462;11.000;2023-02-11T15:00:21;9.60;99.90
37289;DHT22;23174;49.462;11.000;2023-02-11T15:02:23;9.60;99.90
37289;DHT22;23174;49.462;11.000;2023-02-11T15:04:28;9.70;99.90
37289;DHT22;23174;49.462;11.000;2023-02-11T15:06:36;9.60;99.90
37289;DHT22;23174;49.462;11.000;2023-02-11T15:08:44;9.50;99.90
37289;DHT22;23174;49.462;11.000;2023-02-11T15:10:46;9.60;99.90
37289;DHT22;23174;49.462;11.000;2023-02-11T15:12:48;9.60;99.90
37289;DHT22;23174;49.462;11.000;2023-02-11T15:14:51;9.60;99.90